sensor_id;sensor_type;location;lat;lon;timestamp;pressure;altitude;pressure_sealevel;temperature;humidity
53647;BME280;39550;52.230;5.194;2023-03-22T00:01:24;100776.22;;;8.28;88.20
53647;BME280;39550;52.230;5.194;2023-03-22T00:03:50;100771.94;;;8.29;88.48
53647;BME280;39550;52.230;5.194;2023-03-22T00:06:17;100766.78;;;8.29;88.16
53647;BME280;39550;52.230;5.194;2023-03-22T00:08:44;100769.38;;;8.29;88.25
53647;BME280;39550;52.230;5.194;2023-03-22T00:11:10;100761.66;;;8.29;88.02
53647;BME280;39550;52.230;5.194;2023-03-22T00:13:36;100754.78;;;8.28;88.59
53647;BME280;39550;52.230;5.194;2023-03-22T00:16:03;100757.34;;;8.28;88.65
53647;BME280;39550;52.230;5.194;2023-03-22T00:18:28;100751.38;;;8.27;88.41
53647;BME280;39550;52.230;5.194;2023-03-22T00:20:56;100743.66;;;8.26;88.54
53647;BME280;39550;52.230;5.194;2023-03-22T00:23:22;100749.63;;;8.25;88.15
53647;BME280;39550;52.230;5.194;2023-03-22T00:25:48;100744.47;;;8.25;88.46
53647;BME280;39550;52.230;5.194;2023-03-22T00:28:14;100746.22;;;8.26;87.75
53647;BME280;39550;52.230;5.194;2023-03-22T00:30:41;100742.81;;;8.27;87.80
53647;BME280;39550;52.230;5.194;2023-03-22T00:33:07;100730.78;;;8.23;88.20
53647;BME280;39550;52.230;5.194;2023-03-22T00:35:32;100741.91;;;8.25;88.31
53647;BME280;39550;52.230;5.194;2023-03-22T00:37:58;100730.78;;;8.23;88.48
53647;BME280;39550;52.230;5.194;2023-03-22T00:40:31;100735.91;;;8.23;88.48
53647;BME280;39550;52.230;5.194;2023-03-22T00:42:57;100730.78;;;8.23;88.20
53647;BME280;39550;52.230;5.194;2023-03-22T00:45:23;100732.47;;;8.24;88.40
53647;BME280;39550;52.230;5.194;2023-03-22T00:47:49;100725.63;;;8.23;88.62
53647;BME280;39550;52.230;5.194;2023-03-22T00:50:14;100723.00;;;8.19;87.88
53647;BME280;39550;52.230;5.194;2023-03-22T00:52:39;100710.16;;;8.19;88.24
53647;BME280;39550;52.230;5.194;2023-03-22T00:55:05;100726.50;;;8.23;88.29
53647;BME280;39550;52.230;5.194;2023-03-22T00:57:30;100712.81;;;8.23;87.89
53647;BME280;39550;52.230;5.194;2023-03-22T00:59:56;100710.22;;;8.23;87.64
53647;BME280;39550;52.230;5.194;2023-03-22T01:02:22;100710.16;;;8.19;87.84
53647;BME280;39550;52.230;5.194;2023-03-22T01:04:54;100707.66;;;8.23;87.89
53647;BME280;39550;52.230;5.194;2023-03-22T01:07:19;100706.75;;;8.21;87.62
53647;BME280;39550;52.230;5.194;2023-03-22T01:09:46;100702.50;;;8.21;87.97
53647;BME280;39550;52.230;5.194;2023-03-22T01:12:12;100689.63;;;8.19;87.92
53647;BME280;39550;52.230;5.194;2023-03-22T01:14:38;100686.22;;;8.21;88.03
53647;BME280;39550;52.230;5.194;2023-03-22T01:17:04;100686.22;;;8.21;88.00
53647;BME280;39550;52.230;5.194;2023-03-22T01:19:29;100681.09;;;8.21;87.75
53647;BME280;39550;52.230;5.194;2023-03-22T01:21:55;100669.97;;;8.18;87.98
53647;BME280;39550;52.230;5.194;2023-03-22T01:24:22;100670.81;;;8.21;87.79
53647;BME280;39550;52.230;5.194;2023-03-22T01:26:47;100670.81;;;8.21;88.23
53647;BME280;39550;52.230;5.194;2023-03-22T01:29:12;100667.41;;;8.18;87.91
53647;BME280;39550;52.230;5.194;2023-03-22T01:31:38;100657.13;;;8.18;88.20
53647;BME280;39550;52.230;5.194;2023-03-22T01:34:03;100651.09;;;8.18;87.88
53647;BME280;39550;52.230;5.194;2023-03-22T01:36:28;100652.84;;;8.19;87.83
53647;BME280;39550;52.230;5.194;2023-03-22T01:38:54;100646.84;;;8.18;88.50
53647;BME280;39550;52.230;5.194;2023-03-22T01:41:20;100637.41;;;8.17;88.54
53647;BME280;39550;52.230;5.194;2023-03-22T01:44:03;100637.44;;;8.19;87.85
53647;BME280;39550;52.230;5.194;2023-03-22T01:46:30;100624.53;;;8.13;88.09
53647;BME280;39550;52.230;5.194;2023-03-22T01:48:57;100629.72;;;8.17;88.61
53647;BME280;39550;52.230;5.194;2023-03-22T01:51:24;100628.00;;;8.16;88.39
53647;BME280;39550;52.230;5.194;2023-03-22T01:53:53;100620.25;;;8.13;87.91
53647;BME280;39550;52.230;5.194;2023-03-22T01:56:22;100613.41;;;8.15;87.75
53647;BME280;39550;52.230;5.194;2023-03-22T01:58:52;100612.56;;;8.13;88.56
53647;BME280;39550;52.230;5.194;2023-03-22T02:01:19;100602.28;;;8.13;88.76
53647;BME280;39550;52.230;5.194;2023-03-22T02:06:23;100597.97;;;8.12;88.61
53647;BME280;39550;52.230;5.194;2023-03-22T02:08:50;100586.88;;;8.13;88.05
53647;BME280;39550;52.230;5.194;2023-03-22T02:11:24;100580.88;;;8.11;88.85
53647;BME280;39550;52.230;5.194;2023-03-22T02:14:00;100577.44;;;8.11;88.26
53647;BME280;39550;52.230;5.194;2023-03-22T02:16:56;100576.59;;;8.10;88.53
53647;BME280;39550;52.230;5.194;2023-03-22T02:30:53;100560.31;;;8.10;88.44
53647;BME280;39550;52.230;5.194;2023-03-22T02:33:39;100560.31;;;8.10;87.88
53647;BME280;39550;52.230;5.194;2023-03-22T02:49:39;100537.22;;;8.10;88.18
53647;BME280;39550;52.230;5.194;2023-03-22T02:52:17;100534.63;;;8.10;88.21
53647;BME280;39550;52.230;5.194;2023-03-22T02:55:09;100534.63;;;8.10;88.44
53647;BME280;39550;52.230;5.194;2023-03-22T02:57:43;100531.22;;;8.09;88.36
53647;BME280;39550;52.230;5.194;2023-03-22T03:00:13;100522.69;;;8.09;88.26
53647;BME280;39550;52.230;5.194;2023-03-22T03:02:46;100529.50;;;8.08;87.63
53647;BME280;39550;52.230;5.194;2023-03-22T03:05:15;100515.81;;;8.09;87.57
53647;BME280;39550;52.230;5.194;2023-03-22T03:07:43;100513.22;;;8.06;87.86
53647;BME280;39550;52.230;5.194;2023-03-22T03:10:15;100524.34;;;8.08;88.36
53647;BME280;39550;52.230;5.194;2023-03-22T03:12:41;100528.63;;;8.06;87.95
53647;BME280;39550;52.230;5.194;2023-03-22T03:15:13;100530.34;;;8.07;88.41
53647;BME280;39550;52.230;5.194;2023-03-22T03:25:27;100525.16;;;8.04;88.02
53647;BME280;39550;52.230;5.194;2023-03-22T03:28:11;100520.03;;;8.04;87.71
53647;BME280;39550;52.230;5.194;2023-03-22T03:30:47;100523.47;;;8.03;88.33
53647;BME280;39550;52.230;5.194;2023-03-22T03:33:16;100519.19;;;8.04;88.04
53647;BME280;39550;52.230;5.194;2023-03-22T03:35:48;100516.63;;;8.04;88.28
53647;BME280;39550;52.230;5.194;2023-03-22T03:38:19;100516.59;;;8.02;87.86
53647;BME280;39550;52.230;5.194;2023-03-22T03:40:49;100500.31;;;8.00;87.95
53647;BME280;39550;52.230;5.194;2023-03-22T03:43:16;100508.06;;;8.03;88.03
53647;BME280;39550;52.230;5.194;2023-03-22T03:45:43;100518.31;;;8.03;88.14
53647;BME280;39550;52.230;5.194;2023-03-22T03:48:16;100502.88;;;8.01;87.63
53647;BME280;39550;52.230;5.194;2023-03-22T03:50:43;100508.06;;;8.03;88.22
53647;BME280;39550;52.230;5.194;2023-03-22T03:53:08;100520.00;;;8.02;87.79
53647;BME280;39550;52.230;5.194;2023-03-22T03:55:33;100516.59;;;8.02;87.56
53647;BME280;39550;52.230;5.194;2023-03-22T03:57:59;100517.44;;;8.02;87.85
53647;BME280;39550;52.230;5.194;2023-03-22T04:00:24;100511.47;;;8.02;87.30
53647;BME280;39550;52.230;5.194;2023-03-22T04:02:50;100505.44;;;8.01;87.88
53647;BME280;39550;52.230;5.194;2023-03-22T04:05:15;100505.44;;;8.01;87.52
53647;BME280;39550;52.230;5.194;2023-03-22T04:07:40;100501.19;;;8.02;87.73
53647;BME280;39550;52.230;5.194;2023-03-22T04:10:06;100498.63;;;8.00;87.64
53647;BME280;39550;52.230;5.194;2023-03-22T04:12:32;100502.03;;;8.01;88.21
53647;BME280;39550;52.230;5.194;2023-03-22T04:14:57;100495.16;;;8.00;87.74
53647;BME280;39550;52.230;5.194;2023-03-22T04:17:23;100505.44;;;8.00;88.12
53647;BME280;39550;52.230;5.194;2023-03-22T04:19:49;100499.44;;;7.99;87.78
53647;BME280;39550;52.230;5.194;2023-03-22T04:22:17;100510.59;;;8.01;88.30
53647;BME280;39550;52.230;5.194;2023-03-22T04:24:43;100486.63;;;7.99;87.59
53647;BME280;39550;52.230;5.194;2023-03-22T04:27:18;100489.16;;;7.98;87.60
53647;BME280;39550;52.230;5.194;2023-03-22T04:29:44;100490.91;;;7.99;88.03
53647;BME280;39550;52.230;5.194;2023-03-22T04:32:17;100490.03;;;7.98;87.53
53647;BME280;39550;52.230;5.194;2023-03-22T04:34:45;100482.31;;;7.97;87.75
53647;BME280;39550;52.230;5.194;2023-03-22T04:37:11;100478.94;;;7.99;87.94
53647;BME280;39550;52.230;5.194;2023-03-22T04:39:37;100473.78;;;7.98;88.20
53647;BME280;39550;52.230;5.194;2023-03-22T04:42:02;100482.34;;;8.00;87.55
53647;BME280;39550;52.230;5.194;2023-03-22T04:44:27;100490.03;;;8.00;87.83
53647;BME280;39550;52.230;5.194;2023-03-22T04:46:53;100482.34;;;8.00;88.08
53647;BME280;39550;52.230;5.194;2023-03-22T04:49:18;100475.50;;;7.99;88.01
53647;BME280;39550;52.230;5.194;2023-03-22T04:51:43;100475.50;;;7.99;87.96
53647;BME280;39550;52.230;5.194;2023-03-22T04:54:09;100465.25;;;7.99;87.97
53647;BME280;39550;52.230;5.194;2023-03-22T04:56:34;100459.22;;;7.97;87.93
53647;BME280;39550;52.230;5.194;2023-03-22T04:59:00;100468.66;;;7.98;87.67
53647;BME280;39550;52.230;5.194;2023-03-22T05:01:25;100461.78;;;7.97;87.67
53647;BME280;39550;52.230;5.194;2023-03-22T05:03:50;100456.66;;;7.97;88.51
53647;BME280;39550;52.230;5.194;2023-03-22T05:06:16;100455.81;;;7.98;87.72
53647;BME280;39550;52.230;5.194;2023-03-22T05:08:41;100451.53;;;7.97;87.97
53647;BME280;39550;52.230;5.194;2023-03-22T05:11:12;100451.53;;;7.97;87.99
53647;BME280;39550;52.230;5.194;2023-03-22T05:13:39;100445.53;;;7.96;87.70
53647;BME280;39550;52.230;5.194;2023-03-22T05:16:05;100453.25;;;7.96;88.06
53647;BME280;39550;52.230;5.194;2023-03-22T05:18:31;100454.91;;;7.96;87.77
53647;BME280;39550;52.230;5.194;2023-03-22T05:20:58;100460.06;;;7.96;87.97
53647;BME280;39550;52.230;5.194;2023-03-22T05:23:24;100451.53;;;7.97;88.37
53647;BME280;39550;52.230;5.194;2023-03-22T05:25:52;100455.81;;;7.96;87.75
53647;BME280;39550;52.230;5.194;2023-03-22T05:28:19;100454.91;;;7.96;87.85
53647;BME280;39550;52.230;5.194;2023-03-22T05:30:46;100451.53;;;7.97;87.70
53647;BME280;39550;52.230;5.194;2023-03-22T05:33:11;100449.78;;;7.96;87.54
53647;BME280;39550;52.230;5.194;2023-03-22T05:35:38;100448.13;;;7.98;87.97
53647;BME280;39550;52.230;5.194;2023-03-22T05:38:04;100438.69;;;7.97;87.58
53647;BME280;39550;52.230;5.194;2023-03-22T05:40:30;100445.56;;;7.98;87.79
53647;BME280;39550;52.230;5.194;2023-03-22T05:42:56;100436.13;;;7.97;87.66
53647;BME280;39550;52.230;5.194;2023-03-22T05:45:22;100443.81;;;7.97;88.16
53647;BME280;39550;52.230;5.194;2023-03-22T05:47:47;100436.13;;;7.97;88.21
53647;BME280;39550;52.230;5.194;2023-03-22T05:50:16;100421.56;;;7.96;87.66
53647;BME280;39550;52.230;5.194;2023-03-22T05:52:43;100425.84;;;7.97;88.36
53647;BME280;39550;52.230;5.194;2023-03-22T05:55:09;100421.56;;;7.96;87.64
53647;BME280;39550;52.230;5.194;2023-03-22T05:57:34;100420.72;;;7.97;88.15
53647;BME280;39550;52.230;5.194;2023-03-22T06:00:00;100417.31;;;7.95;88.09
53647;BME280;39550;52.230;5.194;2023-03-22T06:02:26;100422.47;;;7.98;87.93
53647;BME280;39550;52.230;5.194;2023-03-22T06:04:51;100422.44;;;7.96;87.37
53647;BME280;39550;52.230;5.194;2023-03-22T06:07:17;100419.00;;;7.97;88.00
53647;BME280;39550;52.230;5.194;2023-03-22T06:09:43;100425.03;;;7.99;87.28
53647;BME280;39550;52.230;5.194;2023-03-22T06:12:09;100418.19;;;8.00;87.89
53647;BME280;39550;52.230;5.194;2023-03-22T06:14:34;100417.31;;;7.98;87.83
53647;BME280;39550;52.230;5.194;2023-03-22T06:17:00;100425.88;;;8.00;88.00
53647;BME280;39550;52.230;5.194;2023-03-22T06:19:25;100418.19;;;8.00;88.08
53647;BME280;39550;52.230;5.194;2023-03-22T06:21:52;100429.34;;;8.02;87.70
53647;BME280;39550;52.230;5.194;2023-03-22T06:24:18;100420.78;;;8.01;87.98
53647;BME280;39550;52.230;5.194;2023-03-22T06:26:44;100426.81;;;8.04;87.73
53647;BME280;39550;52.230;5.194;2023-03-22T06:29:09;100421.66;;;8.04;87.95
53647;BME280;39550;52.230;5.194;2023-03-22T06:31:35;100415.69;;;8.03;87.96
53647;BME280;39550;52.230;5.194;2023-03-22T06:34:00;100419.97;;;8.06;87.66
53647;BME280;39550;52.230;5.194;2023-03-22T06:36:26;100413.97;;;8.05;87.08
53647;BME280;39550;52.230;5.194;2023-03-22T06:38:51;100419.13;;;8.05;86.87
53647;BME280;39550;52.230;5.194;2023-03-22T06:41:18;100419.13;;;8.07;87.17
53647;BME280;39550;52.230;5.194;2023-03-22T06:43:43;100421.72;;;8.08;87.71
53647;BME280;39550;52.230;5.194;2023-03-22T06:46:08;100425.16;;;8.10;86.89
53647;BME280;39550;52.230;5.194;2023-03-22T06:48:34;100422.59;;;8.10;87.35
53647;BME280;39550;52.230;5.194;2023-03-22T06:51:00;100422.63;;;8.12;87.45
53647;BME280;39550;52.230;5.194;2023-03-22T06:53:25;100422.63;;;8.12;87.46
53647;BME280;39550;52.230;5.194;2023-03-22T06:55:50;100434.59;;;8.11;87.32
53647;BME280;39550;52.230;5.194;2023-03-22T06:58:17;100429.41;;;8.10;87.04
53647;BME280;39550;52.230;5.194;2023-03-22T07:00:42;100420.88;;;8.09;87.51
53647;BME280;39550;52.230;5.194;2023-03-22T07:03:07;100426.00;;;8.09;86.93
53647;BME280;39550;52.230;5.194;2023-03-22T07:05:33;100423.44;;;8.08;86.90
53647;BME280;39550;52.230;5.194;2023-03-22T07:07:58;100420.88;;;8.09;87.23
53647;BME280;39550;52.230;5.194;2023-03-22T07:10:23;100428.59;;;8.11;87.19
53647;BME280;39550;52.230;5.194;2023-03-22T07:12:48;100421.72;;;8.10;86.94
53647;BME280;39550;52.230;5.194;2023-03-22T07:15:14;100434.59;;;8.11;87.03
53647;BME280;39550;52.230;5.194;2023-03-22T07:17:41;100430.31;;;8.10;86.76
53647;BME280;39550;52.230;5.194;2023-03-22T07:20:07;100431.13;;;8.09;87.08
53647;BME280;39550;52.230;5.194;2023-03-22T07:22:32;100426.00;;;8.09;86.53
53647;BME280;39550;52.230;5.194;2023-03-22T07:24:57;100426.03;;;8.12;86.78
53647;BME280;39550;52.230;5.194;2023-03-22T07:27:23;100419.22;;;8.14;86.65
53647;BME280;39550;52.230;5.194;2023-03-22T07:29:48;100424.38;;;8.17;86.18
53647;BME280;39550;52.230;5.194;2023-03-22T07:32:14;100410.72;;;8.20;86.51
53647;BME280;39550;52.230;5.194;2023-03-22T07:34:40;100418.41;;;8.18;85.89
53647;BME280;39550;52.230;5.194;2023-03-22T07:37:05;100424.38;;;8.17;86.71
53647;BME280;39550;52.230;5.194;2023-03-22T07:39:32;100417.53;;;8.19;86.41
53647;BME280;39550;52.230;5.194;2023-03-22T07:41:57;100414.13;;;8.19;86.49
53647;BME280;39550;52.230;5.194;2023-03-22T07:44:23;100407.28;;;8.19;86.46
53647;BME280;39550;52.230;5.194;2023-03-22T07:46:48;100403.03;;;8.20;86.12
53647;BME280;39550;52.230;5.194;2023-03-22T07:49:16;100415.88;;;8.22;86.27
53647;BME280;39550;52.230;5.194;2023-03-22T07:51:41;100410.75;;;8.22;86.43
53647;BME280;39550;52.230;5.194;2023-03-22T07:54:07;100412.47;;;8.21;86.37
53647;BME280;39550;52.230;5.194;2023-03-22T07:56:32;100417.59;;;8.23;86.80
53647;BME280;39550;52.230;5.194;2023-03-22T07:58:57;100409.00;;;8.21;86.61
53647;BME280;39550;52.230;5.194;2023-03-22T08:01:23;100417.59;;;8.23;86.58
53647;BME280;39550;52.230;5.194;2023-03-22T08:03:49;100414.16;;;8.22;86.18
53647;BME280;39550;52.230;5.194;2023-03-22T08:06:14;100415.88;;;8.22;86.22
53647;BME280;39550;52.230;5.194;2023-03-22T08:08:40;100421.03;;;8.25;86.70
53647;BME280;39550;52.230;5.194;2023-03-22T08:11:06;100408.19;;;8.23;86.66
53647;BME280;39550;52.230;5.194;2023-03-22T08:13:32;100419.31;;;8.24;86.72
53647;BME280;39550;52.230;5.194;2023-03-22T08:15:57;100415.03;;;8.21;86.50
53647;BME280;39550;52.230;5.194;2023-03-22T08:18:23;100417.59;;;8.21;86.19
53647;BME280;39550;52.230;5.194;2023-03-22T08:20:55;100417.59;;;8.23;86.46
53647;BME280;39550;52.230;5.194;2023-03-22T08:23:23;100415.06;;;8.24;86.32
53647;BME280;39550;52.230;5.194;2023-03-22T08:25:48;100414.22;;;8.27;85.95
53647;BME280;39550;52.230;5.194;2023-03-22T08:28:14;100422.78;;;8.29;85.87
53647;BME280;39550;52.230;5.194;2023-03-22T08:30:41;100416.81;;;8.28;86.42
53647;BME280;39550;52.230;5.194;2023-03-22T08:33:07;100420.22;;;8.30;86.41
53647;BME280;39550;52.230;5.194;2023-03-22T08:35:33;100411.69;;;8.30;86.60
53647;BME280;39550;52.230;5.194;2023-03-22T08:37:58;100405.72;;;8.31;86.72
53647;BME280;39550;52.230;5.194;2023-03-22T08:40:24;100410.84;;;8.29;86.29
53647;BME280;39550;52.230;5.194;2023-03-22T08:42:49;100398.81;;;8.27;86.54
53647;BME280;39550;52.230;5.194;2023-03-22T08:45:15;100414.22;;;8.25;86.93
53647;BME280;39550;52.230;5.194;2023-03-22T08:47:41;100411.66;;;8.25;86.49
53647;BME280;39550;52.230;5.194;2023-03-22T08:50:07;100403.91;;;8.24;86.81
53647;BME280;39550;52.230;5.194;2023-03-22T08:52:33;100413.31;;;8.23;86.71
53647;BME280;39550;52.230;5.194;2023-03-22T08:54:58;100418.47;;;8.25;86.37
53647;BME280;39550;52.230;5.194;2023-03-22T08:57:24;100410.75;;;8.25;86.92
53647;BME280;39550;52.230;5.194;2023-03-22T08:59:55;100412.50;;;8.26;86.81
53647;BME280;39550;52.230;5.194;2023-03-22T09:02:22;100418.47;;;8.25;87.13
53647;BME280;39550;52.230;5.194;2023-03-22T09:04:48;100420.19;;;8.26;86.56
53647;BME280;39550;52.230;5.194;2023-03-22T09:07:13;100415.91;;;8.26;86.45
53647;BME280;39550;52.230;5.194;2023-03-22T09:09:39;100421.03;;;8.26;86.22
53647;BME280;39550;52.230;5.194;2023-03-22T09:12:05;100428.75;;;8.28;87.12
53647;BME280;39550;52.230;5.194;2023-03-22T09:14:30;100415.06;;;8.27;87.05
53647;BME280;39550;52.230;5.194;2023-03-22T09:16:56;100413.34;;;8.26;87.27
53647;BME280;39550;52.230;5.194;2023-03-22T09:19:21;100417.63;;;8.26;86.90
53647;BME280;39550;52.230;5.194;2023-03-22T09:21:46;100415.91;;;8.25;87.34
53647;BME280;39550;52.230;5.194;2023-03-22T09:24:12;100415.91;;;8.25;87.07
53647;BME280;39550;52.230;5.194;2023-03-22T09:26:37;100410.75;;;8.22;87.33
53647;BME280;39550;52.230;5.194;2023-03-22T09:29:03;100412.47;;;8.23;87.26
53647;BME280;39550;52.230;5.194;2023-03-22T09:31:28;100403.91;;;8.24;87.50
53647;BME280;39550;52.230;5.194;2023-03-22T09:33:53;100411.59;;;8.22;87.95
53647;BME280;39550;52.230;5.194;2023-03-22T09:36:19;100402.22;;;8.23;87.21
53647;BME280;39550;52.230;5.194;2023-03-22T09:38:44;100401.31;;;8.22;87.71
53647;BME280;39550;52.230;5.194;2023-03-22T09:41:21;100417.59;;;8.23;87.92
53647;BME280;39550;52.230;5.194;2023-03-22T09:43:54;100403.88;;;8.21;87.27
53647;BME280;39550;52.230;5.194;2023-03-22T09:46:34;100407.31;;;8.21;87.72
53647;BME280;39550;52.230;5.194;2023-03-22T09:49:02;100412.47;;;8.23;87.24
53647;BME280;39550;52.230;5.194;2023-03-22T09:53:57;100397.91;;;8.22;88.29
53647;BME280;39550;52.230;5.194;2023-03-22T09:56:25;100403.88;;;8.21;88.27
53647;BME280;39550;52.230;5.194;2023-03-22T09:58:58;100409.91;;;8.21;88.44
53647;BME280;39550;52.230;5.194;2023-03-22T10:04:47;100418.44;;;8.22;88.26
53647;BME280;39550;52.230;5.194;2023-03-22T10:07:32;100398.75;;;8.22;88.12
53647;BME280;39550;52.230;5.194;2023-03-22T10:15:22;100407.38;;;8.26;87.96
53647;BME280;39550;52.230;5.194;2023-03-22T10:17:52;100400.50;;;8.25;87.92
53647;BME280;39550;52.230;5.194;2023-03-22T10:20:36;100413.34;;;8.26;88.25
53647;BME280;39550;52.230;5.194;2023-03-22T10:23:05;100415.06;;;8.27;87.80
53647;BME280;39550;52.230;5.194;2023-03-22T10:25:36;100410.75;;;8.25;87.89
53647;BME280;39550;52.230;5.194;2023-03-22T10:28:23;100412.47;;;8.23;88.10
53647;BME280;39550;52.230;5.194;2023-03-22T10:30:55;100417.63;;;8.26;88.09
53647;BME280;39550;52.230;5.194;2023-03-22T10:33:32;100410.75;;;8.25;87.91
53647;BME280;39550;52.230;5.194;2023-03-22T10:35:59;100409.94;;;8.26;88.12
53647;BME280;39550;52.230;5.194;2023-03-22T10:38:27;100412.50;;;8.26;87.84
53647;BME280;39550;52.230;5.194;2023-03-22T10:40:56;100407.38;;;8.26;88.42
53647;BME280;39550;52.230;5.194;2023-03-22T10:43:37;100414.22;;;8.27;88.58
53647;BME280;39550;52.230;5.194;2023-03-22T10:46:05;100421.06;;;8.28;88.69
53647;BME280;39550;52.230;5.194;2023-03-22T10:48:34;100407.38;;;8.29;88.95
53647;BME280;39550;52.230;5.194;2023-03-22T10:51:00;100398.84;;;8.30;89.52
53647;BME280;39550;52.230;5.194;2023-03-22T10:53:35;100398.00;;;8.31;88.45
53647;BME280;39550;52.230;5.194;2023-03-22T10:56:02;100378.31;;;8.30;88.52
53647;BME280;39550;52.230;5.194;2023-03-22T10:58:32;100400.56;;;8.31;88.50
53647;BME280;39550;52.230;5.194;2023-03-22T11:01:03;100390.34;;;8.34;89.31
53647;BME280;39550;52.230;5.194;2023-03-22T11:06:14;100376.69;;;8.41;88.61
53647;BME280;39550;52.230;5.194;2023-03-22T11:08:49;100387.81;;;8.40;88.33
53647;BME280;39550;52.230;5.194;2023-03-22T11:11:51;100389.53;;;8.41;88.56
53647;BME280;39550;52.230;5.194;2023-03-22T11:19:35;100375.84;;;8.42;87.66
53647;BME280;39550;52.230;5.194;2023-03-22T11:22:03;100381.84;;;8.44;88.61
53647;BME280;39550;52.230;5.194;2023-03-22T11:24:31;100385.34;;;8.46;87.81
53647;BME280;39550;52.230;5.194;2023-03-22T11:27:16;100383.63;;;8.45;87.19
53647;BME280;39550;52.230;5.194;2023-03-22T11:29:46;100379.38;;;8.47;87.48
53647;BME280;39550;52.230;5.194;2023-03-22T11:32:34;100389.66;;;8.49;87.47
53647;BME280;39550;52.230;5.194;2023-03-22T11:37:26;100404.19;;;8.48;87.92
53647;BME280;39550;52.230;5.194;2023-03-22T11:39:58;100409.31;;;8.48;87.29
53647;BME280;39550;52.230;5.194;2023-03-22T11:42:25;100407.63;;;8.47;88.00
53647;BME280;39550;52.230;5.194;2023-03-22T11:44:51;100418.75;;;8.48;88.01
53647;BME280;39550;52.230;5.194;2023-03-22T11:47:17;100423.88;;;8.48;87.83
53647;BME280;39550;52.230;5.194;2023-03-22T11:49:50;100431.56;;;8.46;88.01
53647;BME280;39550;52.230;5.194;2023-03-22T11:52:19;100424.69;;;8.45;87.73
53647;BME280;39550;52.230;5.194;2023-03-22T11:54:47;100421.28;;;8.46;87.35
53647;BME280;39550;52.230;5.194;2023-03-22T11:57:15;100423.03;;;8.47;87.28
53647;BME280;39550;52.230;5.194;2023-03-22T12:02:19;100422.16;;;8.47;88.02
53647;BME280;39550;52.230;5.194;2023-03-22T12:04:47;100421.28;;;8.46;87.88
53647;BME280;39550;52.230;5.194;2023-03-22T12:07:16;100418.72;;;8.46;88.08
53647;BME280;39550;52.230;5.194;2023-03-22T12:10:00;100411.88;;;8.47;88.06
53647;BME280;39550;52.230;5.194;2023-03-22T12:12:35;100417.00;;;8.47;87.87
53647;BME280;39550;52.230;5.194;2023-03-22T12:20:38;100418.72;;;8.45;88.36
53647;BME280;39550;52.230;5.194;2023-03-22T12:23:16;100415.25;;;8.44;88.44
53647;BME280;39550;52.230;5.194;2023-03-22T12:25:47;100421.25;;;8.43;88.58
53647;BME280;39550;52.230;5.194;2023-03-22T12:28:17;100424.66;;;8.42;87.88
53647;BME280;39550;52.230;5.194;2023-03-22T12:30:50;100424.66;;;8.42;88.46
53647;BME280;39550;52.230;5.194;2023-03-22T12:33:21;100409.25;;;8.44;88.22
53647;BME280;39550;52.230;5.194;2023-03-22T12:35:50;100412.66;;;8.44;88.62
53647;BME280;39550;52.230;5.194;2023-03-22T12:38:24;100412.66;;;8.44;88.41
53647;BME280;39550;52.230;5.194;2023-03-22T12:40:53;100411.03;;;8.46;88.21
53647;BME280;39550;52.230;5.194;2023-03-22T12:46:30;100400.66;;;8.40;87.68
53647;BME280;39550;52.230;5.194;2023-03-22T12:49:22;100387.06;;;8.47;87.74
53647;BME280;39550;52.230;5.194;2023-03-22T12:51:53;100380.22;;;8.49;87.84
53647;BME280;39550;52.230;5.194;2023-03-22T12:54:23;100382.81;;;8.49;88.82
53647;BME280;39550;52.230;5.194;2023-03-22T12:56:50;100383.63;;;8.48;88.17
53647;BME280;39550;52.230;5.194;2023-03-22T12:59:28;100391.34;;;8.47;88.01
53647;BME280;39550;52.230;5.194;2023-03-22T13:02:02;100397.34;;;8.47;88.49
53647;BME280;39550;52.230;5.194;2023-03-22T13:09:40;100407.53;;;8.44;88.75
53647;BME280;39550;52.230;5.194;2023-03-22T13:17:33;100407.63;;;8.47;88.32
53647;BME280;39550;52.230;5.194;2023-03-22T13:33:11;100400.75;;;8.48;88.42
53647;BME280;39550;52.230;5.194;2023-03-22T13:35:45;100387.94;;;8.49;88.57
53647;BME280;39550;52.230;5.194;2023-03-22T13:38:24;100393.91;;;8.48;88.65
53647;BME280;39550;52.230;5.194;2023-03-22T13:58:54;100380.22;;;8.49;88.20
53647;BME280;39550;52.230;5.194;2023-03-22T14:01:27;100386.22;;;8.50;88.34
53647;BME280;39550;52.230;5.194;2023-03-22T14:03:57;100381.97;;;8.50;88.77
53647;BME280;39550;52.230;5.194;2023-03-22T14:06:34;100378.56;;;8.51;88.86
53647;BME280;39550;52.230;5.194;2023-03-22T14:09:11;100383.72;;;8.55;89.19
53647;BME280;39550;52.230;5.194;2023-03-22T14:12:00;100380.31;;;8.56;89.04
53647;BME280;39550;52.230;5.194;2023-03-22T14:14:33;100371.72;;;8.54;89.58
53647;BME280;39550;52.230;5.194;2023-03-22T14:17:01;100363.16;;;8.55;88.98
53647;BME280;39550;52.230;5.194;2023-03-22T14:19:31;100367.47;;;8.56;89.04
53647;BME280;39550;52.230;5.194;2023-03-22T14:22:02;100360.59;;;8.56;89.15
53647;BME280;39550;52.230;5.194;2023-03-22T14:24:29;100349.50;;;8.59;89.44
53647;BME280;39550;52.230;5.194;2023-03-22T14:26:59;100349.53;;;8.65;88.98
53647;BME280;39550;52.230;5.194;2023-03-22T14:29:43;100347.88;;;8.73;89.34
53647;BME280;39550;52.230;5.194;2023-03-22T14:32:17;100341.09;;;8.78;89.71
53647;BME280;39550;52.230;5.194;2023-03-22T14:34:46;100353.97;;;8.84;89.53
53647;BME280;39550;52.230;5.194;2023-03-22T14:37:13;100336.81;;;8.82;89.76
53647;BME280;39550;52.230;5.194;2023-03-22T14:39:40;100341.16;;;8.88;90.43
53647;BME280;39550;52.230;5.194;2023-03-22T14:44:44;100329.16;;;8.88;90.33
53647;BME280;39550;52.230;5.194;2023-03-22T14:47:18;100329.19;;;8.93;90.57
53647;BME280;39550;52.230;5.194;2023-03-22T14:49:47;100333.47;;;8.95;90.21
53647;BME280;39550;52.230;5.194;2023-03-22T14:52:22;100337.78;;;8.95;90.34
53647;BME280;39550;52.230;5.194;2023-03-22T14:54:51;100342.09;;;8.99;90.79
53647;BME280;39550;52.230;5.194;2023-03-22T14:57:18;100348.91;;;8.98;90.33
53647;BME280;39550;52.230;5.194;2023-03-22T14:59:46;100331.78;;;8.97;90.43